Time;durP1;ratioP1;P1;durP2;ratioP2;P2;SDS_P1;SDS_P2;PMS_P1;PMS_P2;Temp;Humidity;BMP_temperature;BMP_pressure;BME280_temperature;BME280_humidity;BME280_pressure;Samples;Min_cycle;Max_cycle;Signal;HPM_P1;HPM_P2
2021/09/03 00:00:19;;;;;;;33.57;23.37;;;;;;;23.96;55.69;99816.16;2068967;28;20323;-43
2021/09/03 00:01:20;;;;;;;32.58;22.80;;;;;;;23.97;55.77;99811.50;2063360;28;20344;-43
2021/09/03 00:02:21;;;;;;;32.63;22.70;;;;;;;23.96;55.71;99824.41;2065811;28;20036;-44
2021/09/03 00:03:21;;;;;;;31.07;23.63;;;;;;;23.95;55.72;99817.19;2069255;28;20060;-43
2021/09/03 00:04:21;;;;;;;31.90;23.23;;;;;;;23.96;55.72;99818.91;2063761;28;20032;-44
2021/09/03 00:05:22;;;;;;;31.97;22.97;;;;;;;23.94;55.62;99812.72;2067208;28;20239;-44
2021/09/03 00:06:23;;;;;;;38.93;24.37;;;;;;;23.96;55.71;99809.81;2061283;28;20444;-43
2021/09/03 00:07:23;;;;;;;29.35;22.00;;;;;;;23.94;55.75;99812.72;2064548;28;21102;-43
2021/09/03 00:08:24;;;;;;;30.60;21.07;;;;;;;23.94;55.65;99801.72;2069567;28;20033;-43
2021/09/03 00:09:25;;;;;;;27.53;22.33;;;;;;;23.95;55.72;99803.41;2066771;28;20440;-44
2021/09/03 00:10:25;;;;;;;35.13;22.37;;;;;;;23.94;55.65;99796.22;2066088;28;20140;-43
2021/09/03 00:11:25;;;;;;;33.37;22.47;;;;;;;23.95;55.76;99791.56;2067367;28;20033;-43
2021/09/03 00:12:26;;;;;;;31.37;22.27;;;;;;;23.95;55.70;99792.41;2065424;28;20477;-43
2021/09/03 00:13:26;;;;;;;34.17;24.37;;;;;;;23.94;55.72;99789.84;2067297;28;20041;-46
2021/09/03 00:14:27;;;;;;;35.63;23.53;;;;;;;23.94;55.77;99790.72;2069268;28;20033;-43
2021/09/03 00:15:28;;;;;;;33.77;24.33;;;;;;;23.94;55.64;99785.19;2064267;28;20026;-43
2021/09/03 00:16:29;;;;;;;32.72;22.15;;;;;;;23.94;55.82;99787.97;2069515;28;20036;-43
2021/09/03 00:17:29;;;;;;;34.00;22.47;;;;;;;23.94;55.73;99779.69;2068400;28;20075;-43
2021/09/03 00:18:30;;;;;;;34.93;24.23;;;;;;;23.95;55.95;99786.91;2066795;28;20064;-43
2021/09/03 00:19:31;;;;;;;33.50;23.87;;;;;;;23.95;55.80;99786.91;2062834;28;20634;-43
2021/09/03 00:20:32;;;;;;;36.25;23.77;;;;;;;23.95;55.85;99786.91;2068364;28;20033;-43
2021/09/03 00:21:33;;;;;;;33.33;23.27;;;;;;;23.95;55.67;99786.91;2071855;28;20328;-43
2021/09/03 00:22:34;;;;;;;34.33;23.00;;;;;;;23.94;55.70;99787.97;2067279;28;20029;-43
2021/09/03 00:23:34;;;;;;;28.40;21.00;;;;;;;23.94;55.64;99792.63;2068018;28;20040;-43
2021/09/03 00:24:35;;;;;;;31.07;21.90;;;;;;;23.94;55.71;99782.44;2069017;28;20139;-44
2021/09/03 00:25:35;;;;;;;30.43;21.70;;;;;;;23.94;55.73;99776.94;2068155;28;20029;-43
2021/09/03 00:26:36;;;;;;;31.30;22.37;;;;;;;23.95;55.78;99777.78;2068932;28;20063;-43
2021/09/03 00:27:37;;;;;;;34.20;22.93;;;;;;;23.93;55.65;99775.25;2062188;28;20100;-43
2021/09/03 00:28:37;;;;;;;35.97;23.23;;;;;;;23.94;55.79;99771.44;2062631;28;20475;-44
2021/09/03 00:29:38;;;;;;;31.83;21.87;;;;;;;23.92;55.68;99768.00;2062878;28;20037;-43
2021/09/03 00:30:38;;;;;;;36.50;23.73;;;;;;;23.94;55.78;99773.34;2062037;28;20275;-43
2021/09/03 00:31:39;;;;;;;31.37;22.63;;;;;;;23.93;55.89;99772.50;2068305;28;20140;-44
2021/09/03 00:32:40;;;;;;;34.67;22.73;;;;;;;23.93;55.77;99777.13;2062359;28;20590;-43
2021/09/03 00:33:40;;;;;;;34.47;22.77;;;;;;;23.93;55.73;99777.13;2064991;28;20037;-45
2021/09/03 00:34:41;;;;;;;32.97;21.57;;;;;;;23.93;55.85;99777.13;2065645;28;20041;-42
2021/09/03 00:35:41;;;;;;;33.63;23.30;;;;;;;23.93;55.88;99772.50;2069085;28;20033;-44
2021/09/03 00:36:47;;;;;;;33.60;22.53;;;;;;;23.93;55.67;99772.50;2068875;28;20496;-43
2021/09/03 00:37:48;;;;;;;31.73;23.40;;;;;;;23.93;55.77;99772.50;2068795;28;20506;-44
2021/09/03 00:38:48;;;;;;;33.67;22.70;;;;;;;23.92;55.72;99773.53;2066144;28;20030;-43
2021/09/03 00:39:48;;;;;;;32.77;22.40;;;;;;;23.93;55.74;99775.25;2067698;28;20029;-44
2021/09/03 00:40:49;;;;;;;34.47;22.53;;;;;;;23.93;55.74;99777.13;2064607;28;20029;-43
2021/09/03 00:41:49;;;;;;;29.47;21.53;;;;;;;23.93;55.92;99782.63;2066861;28;20037;-48
2021/09/03 00:42:50;;;;;;;31.83;21.77;;;;;;;23.92;55.84;99776.28;2068387;28;20509;-48
2021/09/03 00:43:50;;;;;;;30.43;22.27;;;;;;;23.92;55.80;99780.94;2065931;28;20323;-48
2021/09/03 00:44:51;;;;;;;29.10;21.13;;;;;;;23.93;55.81;99771.63;2068685;28;20035;-49
2021/09/03 00:45:52;;;;;;;30.15;22.23;;;;;;;23.94;55.64;99776.09;2068682;28;20033;-48
2021/09/03 00:46:52;;;;;;;31.47;20.80;;;;;;;23.93;55.82;99783.50;2067018;28;20083;-48
2021/09/03 00:47:53;;;;;;;30.73;21.83;;;;;;;23.93;55.88;99774.38;2063795;28;20329;-49
2021/09/03 00:48:53;;;;;;;32.93;21.77;;;;;;;23.92;55.72;99776.28;2065396;28;20037;-48
2021/09/03 00:49:54;;;;;;;28.63;22.02;;;;;;;23.92;55.79;99776.28;2067302;28;20426;-49
2021/09/03 00:50:56;;;;;;;31.90;23.23;;;;;;;23.91;55.99;99774.56;2069267;28;20037;-48
2021/09/03 00:51:58;;;;;;;31.65;21.38;;;;;;;23.92;55.87;99769.91;2068914;28;20382;-48
2021/09/03 00:53:00;;;;;;;29.73;21.88;;;;;;;23.92;55.71;99776.28;2069195;28;20029;-48
2021/09/03 00:54:00;;;;;;;28.30;20.73;;;;;;;23.92;55.80;99769.91;2064806;28;20037;-48
2021/09/03 00:55:01;;;;;;;27.70;20.90;;;;;;;23.91;55.68;99774.56;2065384;28;20022;-41
2021/09/03 00:56:03;;;;;;;31.25;21.55;;;;;;;23.92;55.80;99770.78;2068824;28;20110;-43
2021/09/03 00:57:04;;;;;;;31.20;20.95;;;;;;;23.91;55.89;99771.81;2069685;28;20722;-43
2021/09/03 00:58:04;;;;;;;34.55;22.50;;;;;;;23.92;55.80;99764.41;2069965;28;20025;-43
2021/09/03 00:59:05;;;;;;;26.90;20.33;;;;;;;23.92;55.84;99764.41;2067835;28;20067;-42
2021/09/03 01:00:06;;;;;;;29.97;22.40;;;;;;;23.91;55.91;99762.69;2068323;28;20034;-42
2021/09/03 01:01:06;;;;;;;33.92;22.75;;;;;;;23.91;55.77;99763.56;2064724;28;20495;-43
2021/09/03 01:02:06;;;;;;;29.50;20.67;;;;;;;23.90;55.87;99764.59;2068200;28;20037;-42
2021/09/03 01:03:07;;;;;;;27.87;21.87;;;;;;;23.91;55.82;99771.81;2069052;28;20188;-41
2021/09/03 01:04:07;;;;;;;28.33;21.70;;;;;;;23.90;55.79;99772.00;2063504;28;20049;-42
2021/09/03 01:05:08;;;;;;;33.23;23.37;;;;;;;23.91;55.75;99774.56;2069438;28;20037;-43
2021/09/03 01:06:09;;;;;;;28.50;21.37;;;;;;;23.92;55.88;99776.28;2064722;28;20109;-42
2021/09/03 01:07:09;;;;;;;27.27;19.90;;;;;;;23.90;55.79;99778.34;2069302;28;20036;-42
2021/09/03 01:08:10;;;;;;;28.33;20.83;;;;;;;23.92;55.84;99775.44;2068440;28;20099;-42
2021/09/03 01:09:10;;;;;;;30.67;22.70;;;;;;;23.91;55.90;99776.44;2064960;28;20037;-42
2021/09/03 01:10:11;;;;;;;31.13;21.40;;;;;;;23.90;55.83;99772.84;2067138;28;20047;-42
2021/09/03 01:11:12;;;;;;;30.53;20.73;;;;;;;23.90;55.83;99783.84;2063766;28;20033;-42
2021/09/03 01:12:13;;;;;;;29.08;21.00;;;;;;;23.91;55.89;99781.97;2068622;28;20029;-42
2021/09/03 01:13:14;;;;;;;30.27;21.40;;;;;;;23.91;55.91;99788.34;2065958;28;20025;-42
2021/09/03 01:14:14;;;;;;;28.07;21.53;;;;;;;23.92;55.88;99792.78;2067709;28;20112;-41
2021/09/03 01:15:16;;;;;;;29.37;21.07;;;;;;;23.91;55.73;99791.09;2066148;28;20176;-42
2021/09/03 01:16:17;;;;;;;25.30;19.90;;;;;;;23.91;55.94;99793.84;2067947;28;20221;-41
2021/09/03 01:17:18;;;;;;;27.30;20.97;;;;;;;23.90;55.88;99805.88;2066279;28;20668;-43
2021/09/03 01:18:19;;;;;;;27.63;19.73;;;;;;;23.91;55.94;99802.09;2065480;28;20434;-42
2021/09/03 01:19:19;;;;;;;27.43;20.23;;;;;;;23.91;55.89;99799.34;2069174;28;20067;-42
2021/09/03 01:20:20;;;;;;;28.03;20.10;;;;;;;23.92;55.84;99802.94;2060249;28;20063;-43
2021/09/03 01:21:21;;;;;;;29.23;21.63;;;;;;;23.92;56.04;99806.56;2066925;28;20037;-42
2021/09/03 01:22:23;;;;;;;26.20;21.23;;;;;;;23.93;55.95;99807.41;2063336;28;20038;-43
2021/09/03 01:23:23;;;;;;;31.35;21.52;;;;;;;23.91;55.83;99804.84;2066877;28;20029;-44
2021/09/03 01:24:24;;;;;;;29.37;20.70;;;;;;;23.90;55.84;99794.88;2064563;28;20052;-42
2021/09/03 01:25:24;;;;;;;32.37;22.63;;;;;;;23.89;55.86;99798.69;2067098;28;20041;-41
2021/09/03 01:26:26;;;;;;;30.47;20.20;;;;;;;23.90;55.93;99799.53;2068975;28;20113;-42
2021/09/03 01:27:26;;;;;;;26.58;19.95;;;;;;;23.90;55.85;99794.88;2067529;28;20056;-42
2021/09/03 01:28:27;;;;;;;26.57;20.60;;;;;;;23.90;55.86;99794.03;2065940;28;20366;-42
2021/09/03 01:29:27;;;;;;;28.87;22.07;;;;;;;23.91;55.94;99791.09;2067056;28;20121;-42
2021/09/03 01:30:28;;;;;;;29.63;20.77;;;;;;;23.90;55.89;99794.88;2067035;28;20068;-42
2021/09/03 01:31:29;;;;;;;29.47;21.33;;;;;;;23.90;55.69;99800.38;2067226;28;20673;-42
2021/09/03 01:32:29;;;;;;;27.93;20.70;;;;;;;23.90;55.92;99794.88;2068594;28;20030;-41
2021/09/03 01:33:30;;;;;;;27.97;20.67;;;;;;;23.89;55.71;99798.69;2066511;28;20125;-43
2021/09/03 01:34:30;;;;;;;29.13;20.33;;;;;;;23.90;55.83;99794.03;2065585;28;20514;-42
2021/09/03 01:35:31;;;;;;;26.60;21.20;;;;;;;23.90;55.88;99803.13;2067828;28;20067;-42
2021/09/03 01:36:31;;;;;;;27.57;19.70;;;;;;;23.90;55.90;99799.53;2067748;28;20313;-42
2021/09/03 01:37:32;;;;;;;30.63;19.73;;;;;;;23.90;55.90;99794.88;2066118;28;20552;-49
2021/09/03 01:38:33;;;;;;;29.50;21.23;;;;;;;23.90;55.83;99797.63;2065858;28;20221;-42
2021/09/03 01:39:33;;;;;;;28.97;20.27;;;;;;;23.90;55.85;99792.13;2069090;28;20080;-43
2021/09/03 01:40:34;;;;;;;26.47;20.43;;;;;;;23.90;56.03;99794.88;2066742;28;20855;-43
2021/09/03 01:41:34;;;;;;;28.60;20.33;;;;;;;23.89;55.86;99787.66;2067880;28;20365;-42
2021/09/03 01:42:35;;;;;;;26.93;19.00;;;;;;;23.89;55.98;99787.66;2066251;28;20037;-42
2021/09/03 01:43:36;;;;;;;28.37;20.00;;;;;;;23.88;55.94;99788.69;2064772;28;20492;-44
2021/09/03 01:44:36;;;;;;;26.67;19.33;;;;;;;23.88;55.97;99780.44;2065996;28;20807;-43
2021/09/03 01:45:37;;;;;;;26.00;20.00;;;;;;;23.88;55.99;99785.94;2068407;28;20053;-43
2021/09/03 01:46:37;;;;;;;28.77;20.50;;;;;;;23.88;55.94;99780.44;2067211;28;20073;-43
2021/09/03 01:47:37;;;;;;;27.87;20.83;;;;;;;23.88;55.71;99785.94;2068075;28;20491;-42
2021/09/03 01:48:38;;;;;;;30.50;20.33;;;;;;;23.89;55.89;99776.66;2065763;28;20340;-42
2021/09/03 01:49:38;;;;;;;27.93;20.57;;;;;;;23.88;55.92;99774.94;2064840;28;20033;-43
2021/09/03 01:50:39;;;;;;;26.57;19.97;;;;;;;23.89;55.79;99779.41;2067886;28;20840;-42
2021/09/03 01:51:39;;;;;;;26.00;18.87;;;;;;;23.88;55.98;99785.94;2065227;28;20052;-42
2021/09/03 01:52:40;;;;;;;25.87;20.17;;;;;;;23.88;55.87;99783.19;2063919;28;20238;-42
2021/09/03 01:53:40;;;;;;;29.10;19.97;;;;;;;23.89;55.83;99786.81;2068661;28;21034;-41
2021/09/03 01:54:41;;;;;;;27.57;19.67;;;;;;;23.88;55.86;99780.44;2064099;28;20604;-43
2021/09/03 01:55:41;;;;;;;27.23;19.43;;;;;;;23.87;55.93;99778.75;2067597;28;20575;-42
2021/09/03 01:56:42;;;;;;;26.67;19.07;;;;;;;23.86;55.99;99785.31;2065662;28;20503;-43
2021/09/03 01:57:42;;;;;;;26.30;19.00;;;;;;;23.87;55.98;99784.25;2062664;28;20021;-42
2021/09/03 01:58:43;;;;;;;27.10;19.43;;;;;;;23.87;55.83;99788.91;2067068;28;20037;-42
2021/09/03 01:59:43;;;;;;;26.30;18.13;;;;;;;23.87;55.86;99795.25;2065863;28;20306;-42
2021/09/03 02:00:44;;;;;;;26.17;19.13;;;;;;;23.88;55.92;99796.09;2066290;28;20063;-43
2021/09/03 02:01:44;;;;;;;26.03;19.73;;;;;;;23.87;55.91;99789.75;2065737;28;20282;-43
2021/09/03 02:02:44;;;;;;;24.00;19.00;;;;;;;23.87;55.91;99795.25;2068344;28;20319;-44
2021/09/03 02:03:45;;;;;;;27.73;20.17;;;;;;;23.87;55.96;99784.25;2067646;28;20030;-42
2021/09/03 02:04:45;;;;;;;24.13;19.10;;;;;;;23.88;55.90;99794.19;2067728;28;20676;-42
2021/09/03 02:05:45;;;;;;;26.37;18.67;;;;;;;23.89;55.93;99793.19;2065167;28;20089;-42
2021/09/03 02:06:46;;;;;;;28.27;19.20;;;;;;;23.89;55.89;99786.81;2067116;28;20033;-43
2021/09/03 02:07:46;;;;;;;26.80;18.43;;;;;;;23.87;55.80;99784.25;2065943;28;20048;-42
2021/09/03 02:08:47;;;;;;;24.97;18.57;;;;;;;23.87;55.79;99788.91;2065944;28;20176;-46
2021/09/03 02:09:47;;;;;;;23.90;19.27;;;;;;;23.87;56.00;99788.91;2066585;28;20437;-43
2021/09/03 02:10:48;;;;;;;25.17;18.40;;;;;;;23.87;55.99;99788.91;2065917;28;20278;-42
2021/09/03 02:11:48;;;;;;;25.17;18.47;;;;;;;23.87;55.92;99788.91;2067788;28;20029;-43
2021/09/03 02:12:48;;;;;;;24.60;19.00;;;;;;;23.88;55.99;99791.44;2065340;28;20056;-42
2021/09/03 02:13:49;;;;;;;24.93;18.23;;;;;;;23.88;55.87;99794.19;2060613;28;20030;-43
2021/09/03 02:14:50;;;;;;;26.10;19.53;;;;;;;23.87;55.87;99794.41;2061846;28;20053;-42
2021/09/03 02:15:51;;;;;;;28.57;19.17;;;;;;;23.87;55.83;99795.25;2065098;28;20117;-43
2021/09/03 02:16:51;;;;;;;26.73;19.83;;;;;;;23.88;55.97;99798.84;2067392;28;20037;-43
2021/09/03 02:17:52;;;;;;;26.00;18.87;;;;;;;23.88;55.94;99791.44;2067745;28;20606;-41
2021/09/03 02:18:52;;;;;;;23.43;18.20;;;;;;;23.87;55.91;99794.41;2067857;28;20144;-42
2021/09/03 02:19:53;;;;;;;25.90;19.00;;;;;;;23.89;55.85;99797.84;2064875;28;20037;-42
2021/09/03 02:20:53;;;;;;;26.60;19.90;;;;;;;23.89;55.94;99801.44;2065887;28;20427;-43
2021/09/03 02:21:53;;;;;;;23.47;18.50;;;;;;;23.88;56.00;99807.97;2063541;28;20029;-42
2021/09/03 02:22:54;;;;;;;27.50;19.27;;;;;;;23.87;55.95;99806.25;2068019;28;20108;-42
2021/09/03 02:23:54;;;;;;;22.67;18.77;;;;;;;23.86;55.88;99804.56;2071353;28;20027;-42
2021/09/03 02:24:55;;;;;;;25.83;18.17;;;;;;;23.89;55.96;99803.34;2064178;28;20049;-42
2021/09/03 02:25:55;;;;;;;24.47;18.83;;;;;;;23.86;55.94;99804.56;2065216;28;20033;-42
2021/09/03 02:26:57;;;;;;;28.97;18.90;;;;;;;23.87;55.96;99795.25;2065984;28;20043;-41
2021/09/03 02:27:57;;;;;;;23.40;18.40;;;;;;;23.86;55.95;99799.06;2068858;28;20030;-42
2021/09/03 02:28:58;;;;;;;27.20;19.63;;;;;;;23.87;55.83;99800.75;2063640;28;20316;-42
2021/09/03 02:29:59;;;;;;;25.43;19.90;;;;;;;23.86;55.95;99793.56;2061149;28;20032;-43
2021/09/03 02:31:00;;;;;;;27.17;18.53;;;;;;;23.88;55.96;99796.94;2066601;28;20093;-43
2021/09/03 02:32:00;;;;;;;23.27;17.17;;;;;;;23.86;55.88;99793.56;2065651;28;20428;-42
2021/09/03 02:33:02;;;;;;;23.83;18.07;;;;;;;23.87;55.92;99795.25;2065777;28;20108;-42
2021/09/03 02:34:03;;;;;;;26.50;18.63;;;;;;;23.87;56.16;99791.66;2066550;28;20041;-43
2021/09/03 02:35:04;;;;;;;25.13;18.57;;;;;;;23.87;56.01;99800.75;2066077;28;20029;-43
2021/09/03 02:36:04;;;;;;;24.80;18.23;;;;;;;23.86;55.87;99799.06;2062077;28;20058;-42
2021/09/03 02:37:04;;;;;;;25.70;18.17;;;;;;;23.86;55.83;99793.56;2067122;28;20060;-43
2021/09/03 02:38:05;;;;;;;23.43;18.03;;;;;;;23.87;55.92;99789.75;2065195;28;20040;-42
2021/09/03 02:39:06;;;;;;;25.10;18.40;;;;;;;23.85;56.04;99794.59;2065469;28;20998;-42
2021/09/03 02:40:07;;;;;;;29.20;20.70;;;;;;;23.85;56.03;99789.09;2066049;28;20033;-44
2021/09/03 02:41:07;;;;;;;24.67;18.63;;;;;;;23.85;55.98;99791.84;2063233;28;20025;-42
2021/09/03 02:42:08;;;;;;;21.73;17.90;;;;;;;23.86;55.99;99792.69;2066806;28;20087;-42
2021/09/03 02:43:08;;;;;;;26.63;19.20;;;;;;;23.86;55.91;99789.94;2065060;28;20078;-42
2021/09/03 02:44:09;;;;;;;24.37;17.63;;;;;;;23.86;56.14;99793.56;2068105;28;20344;-42
2021/09/03 02:45:10;;;;;;;22.25;17.35;;;;;;;23.86;56.12;99787.19;2066083;28;20029;-42
2021/09/03 02:46:11;;;;;;;24.10;18.50;;;;;;;23.86;55.78;99782.56;2064824;28;20025;-42
2021/09/03 02:47:11;;;;;;;25.13;17.80;;;;;;;23.86;55.96;99781.66;2066627;28;20653;-42
2021/09/03 02:48:12;;;;;;;24.23;16.73;;;;;;;23.85;55.86;99780.81;2064968;28;20336;-43
2021/09/03 02:49:12;;;;;;;26.90;18.87;;;;;;;23.86;55.92;99787.19;2064596;28;20026;-42
2021/09/03 02:50:14;;;;;;;23.57;17.87;;;;;;;23.85;56.01;99780.81;2065286;28;20166;-42
2021/09/03 02:51:14;;;;;;;23.98;19.30;;;;;;;23.85;55.97;99774.47;2066643;28;20588;-42
2021/09/03 02:52:15;;;;;;;25.10;17.57;;;;;;;23.84;56.08;99776.38;2067464;28;20112;-42
2021/09/03 02:53:15;;;;;;;22.10;16.70;;;;;;;23.85;56.00;99778.06;2062872;28;20387;-42
2021/09/03 02:54:16;;;;;;;23.23;17.97;;;;;;;23.86;56.02;99776.16;2065994;28;20330;-43
2021/09/03 02:55:16;;;;;;;25.63;19.03;;;;;;;23.85;56.03;99778.06;2066478;28;20041;-42
2021/09/03 02:56:17;;;;;;;25.33;17.53;;;;;;;23.85;56.11;99775.31;2067393;28;20418;-42
2021/09/03 02:57:17;;;;;;;22.90;18.00;;;;;;;23.85;55.92;99780.81;2066501;28;20029;-42
2021/09/03 02:58:17;;;;;;;24.10;16.53;;;;;;;23.85;56.05;99769.81;2063050;28;20038;-42
2021/09/03 02:59:18;;;;;;;25.53;17.80;;;;;;;23.85;55.92;99778.06;2063519;28;20046;-42
2021/09/03 03:00:19;;;;;;;20.17;16.83;;;;;;;23.85;55.77;99774.47;2064416;28;20052;-43
2021/09/03 03:01:19;;;;;;;21.90;16.92;;;;;;;23.85;56.01;99775.31;2064542;28;20029;-42
2021/09/03 03:02:20;;;;;;;24.97;17.97;;;;;;;23.85;55.94;99777.22;2063523;28;20037;-42
2021/09/03 03:03:20;;;;;;;23.87;17.87;;;;;;;23.84;56.06;99779.13;2066452;28;20036;-42
2021/09/03 03:04:21;;;;;;;24.40;16.73;;;;;;;23.84;56.01;99776.38;2066541;28;20434;-42
2021/09/03 03:05:21;;;;;;;24.37;17.53;;;;;;;23.83;55.97;99774.66;2067491;28;20037;-42
2021/09/03 03:06:22;;;;;;;23.50;17.50;;;;;;;23.84;56.05;99775.53;2066625;28;20328;-42
2021/09/03 03:07:22;;;;;;;24.47;17.93;;;;;;;23.83;55.99;99777.41;2066132;28;20029;-42
2021/09/03 03:08:23;;;;;;;22.27;17.67;;;;;;;23.84;56.14;99773.63;2068618;28;20143;-42
2021/09/03 03:09:23;;;;;;;24.17;17.90;;;;;;;23.84;56.01;99770.88;2067830;28;20037;-42
2021/09/03 03:10:23;;;;;;;22.90;16.63;;;;;;;23.83;56.03;99766.38;2065965;28;20038;-42
2021/09/03 03:11:24;;;;;;;21.93;17.50;;;;;;;23.83;56.11;99766.38;2063509;28;20117;-42
2021/09/03 03:12:24;;;;;;;24.13;18.47;;;;;;;23.83;56.04;99765.53;2062533;28;20033;-42
2021/09/03 03:13:27;;;;;;;26.43;18.50;;;;;;;23.83;56.05;99763.63;2067095;28;20052;-43
2021/09/03 03:14:29;;;;;;;24.23;16.65;;;;;;;23.83;56.09;99763.63;2068118;28;20030;-42
2021/09/03 03:15:29;;;;;;;24.58;17.83;;;;;;;23.83;56.07;99766.38;2064327;28;20118;-42
2021/09/03 03:16:30;;;;;;;22.13;17.27;;;;;;;23.84;56.24;99768.13;2073433;28;20087;-43
2021/09/03 03:17:31;;;;;;;23.75;18.27;;;;;;;23.83;56.05;99771.91;2074316;28;20033;-42
2021/09/03 03:18:31;;;;;;;22.60;16.17;;;;;;;23.83;56.05;99776.56;2065351;28;20037;-42
2021/09/03 03:19:32;;;;;;;24.27;16.60;;;;;;;23.84;56.13;99776.38;2065690;28;20376;-43
2021/09/03 03:20:32;;;;;;;21.23;16.92;;;;;;;23.84;56.09;99772.78;2067280;28;20037;-42
2021/09/03 03:21:33;;;;;;;23.40;16.77;;;;;;;23.83;56.13;99771.91;2068483;28;20187;-42
2021/09/03 03:22:33;;;;;;;24.27;18.03;;;;;;;23.85;56.07;99780.81;2066953;28;20048;-42
2021/09/03 03:23:34;;;;;;;20.90;16.50;;;;;;;23.85;56.12;99771.72;2068673;28;20064;-43
2021/09/03 03:24:34;;;;;;;22.93;17.43;;;;;;;23.85;56.07;99778.06;2067703;28;20036;-43
2021/09/03 03:25:35;;;;;;;21.57;16.93;;;;;;;23.84;56.12;99779.13;2067830;28;20434;-43
2021/09/03 03:26:35;;;;;;;22.97;16.70;;;;;;;23.85;56.10;99774.47;2067532;28;20033;-45
2021/09/03 03:27:36;;;;;;;23.50;17.93;;;;;;;23.84;56.09;99779.13;2063954;28;20018;-43
2021/09/03 03:28:36;;;;;;;21.17;16.17;;;;;;;23.86;56.14;99782.56;2069008;28;20423;-43
2021/09/03 03:29:37;;;;;;;20.53;16.97;;;;;;;23.84;56.13;99784.63;2067587;28;20048;-43
2021/09/03 03:30:37;;;;;;;20.87;16.17;;;;;;;23.85;56.03;99791.84;2068649;28;20092;-42
2021/09/03 03:31:38;;;;;;;24.07;17.27;;;;;;;23.85;56.05;99788.22;2068134;28;20086;-42
2021/09/03 03:32:39;;;;;;;22.38;16.50;;;;;;;23.85;56.16;99785.47;2064901;28;20060;-42
2021/09/03 03:33:40;;;;;;;22.73;17.17;;;;;;;23.85;56.01;99783.56;2066132;28;20092;-42
2021/09/03 03:34:40;;;;;;;21.20;16.17;;;;;;;23.83;56.14;99777.41;2064744;28;20042;-42
2021/09/03 03:35:41;;;;;;;21.87;16.27;;;;;;;23.84;56.13;99778.28;2066429;28;20275;-42
2021/09/03 03:36:41;;;;;;;21.13;16.83;;;;;;;23.83;56.18;99782.91;2069310;28;20324;-42
2021/09/03 03:37:42;;;;;;;23.33;16.33;;;;;;;23.84;56.11;99773.63;2068314;28;20029;-42
2021/09/03 03:38:43;;;;;;;22.57;17.60;;;;;;;23.83;56.09;99771.91;2068130;28;20239;-42
2021/09/03 03:39:43;;;;;;;23.93;17.17;;;;;;;23.83;56.18;99771.91;2068826;28;20096;-42
2021/09/03 03:40:43;;;;;;;23.43;18.20;;;;;;;23.83;56.17;99780.16;2067033;28;20029;-42
2021/09/03 03:41:44;;;;;;;21.30;15.87;;;;;;;23.83;56.18;99780.16;2069602;28;20029;-44
2021/09/03 03:42:45;;;;;;;21.73;16.73;;;;;;;23.82;56.34;99781.22;2066141;28;20529;-42
2021/09/03 03:43:45;;;;;;;22.83;17.23;;;;;;;23.84;56.12;99775.53;2067752;28;20583;-42
2021/09/03 03:44:46;;;;;;;22.23;16.90;;;;;;;23.83;56.14;99774.66;2068159;28;20620;-42
2021/09/03 03:45:46;;;;;;;24.17;18.00;;;;;;;23.85;56.08;99779.97;2066700;28;20029;-43
2021/09/03 03:46:47;;;;;;;22.23;17.00;;;;;;;23.84;56.18;99776.38;2069145;28;20120;-42
2021/09/03 03:47:47;;;;;;;20.93;15.97;;;;;;;23.85;56.18;99779.97;2067990;28;20319;-42
2021/09/03 03:48:47;;;;;;;24.17;16.90;;;;;;;23.83;56.17;99780.16;2067450;28;20029;-42
2021/09/03 03:49:48;;;;;;;19.53;15.20;;;;;;;23.82;56.17;99775.69;2068869;28;20037;-42
2021/09/03 03:50:48;;;;;;;18.60;15.53;;;;;;;23.84;56.11;99772.78;2065266;28;20037;-42
2021/09/03 03:51:49;;;;;;;22.07;16.07;;;;;;;23.84;55.90;99779.13;2068360;28;20208;-43
2021/09/03 03:52:49;;;;;;;22.70;17.03;;;;;;;23.83;56.24;99777.41;2066530;28;20037;-42
2021/09/03 03:53:50;;;;;;;19.27;15.33;;;;;;;23.83;56.19;99771.91;2066714;28;20039;-42
2021/09/03 03:54:50;;;;;;;23.43;17.13;;;;;;;23.83;56.12;99771.91;2067951;28;20466;-42
2021/09/03 03:55:51;;;;;;;22.90;16.57;;;;;;;23.83;56.24;99771.91;2063603;28;20041;-42
2021/09/03 03:56:51;;;;;;;21.03;16.03;;;;;;;23.82;56.35;99775.69;2067635;28;20097;-42
2021/09/03 03:57:51;;;;;;;20.53;16.03;;;;;;;23.82;56.31;99775.69;2061606;28;20029;-42
2021/09/03 03:58:52;;;;;;;22.87;16.33;;;;;;;23.82;56.18;99772.09;2067904;28;20726;-42
2021/09/03 03:59:52;;;;;;;20.83;16.27;;;;;;;23.82;56.38;99772.09;2069728;28;20072;-42
2021/09/03 04:00:53;;;;;;;21.57;16.73;;;;;;;23.83;56.30;99766.38;2065795;28;20518;-42
2021/09/03 04:01:54;;;;;;;21.20;16.37;;;;;;;23.82;56.11;99764.69;2067061;28;20420;-42
2021/09/03 04:02:55;;;;;;;19.73;16.47;;;;;;;23.81;56.26;99760.22;2068933;28;20124;-42
2021/09/03 04:03:55;;;;;;;21.20;16.53;;;;;;;23.81;56.30;99759.38;2066948;28;20299;-47
2021/09/03 04:04:56;;;;;;;22.03;17.13;;;;;;;23.82;56.38;99764.69;2070169;28;20419;-42
2021/09/03 04:05:56;;;;;;;21.03;15.70;;;;;;;23.82;56.20;99761.94;2067617;28;20037;-42
2021/09/03 04:06:57;;;;;;;20.03;15.83;;;;;;;23.82;56.18;99758.34;2065175;28;20934;-42
2021/09/03 04:07:57;;;;;;;19.07;15.13;;;;;;;23.81;56.38;99762.97;2069276;28;20044;-42
2021/09/03 04:08:58;;;;;;;21.93;16.37;;;;;;;23.81;56.23;99757.47;2065008;28;20065;-42
2021/09/03 04:09:58;;;;;;;19.77;14.73;;;;;;;23.80;56.28;99755.78;2068729;28;20026;-42
2021/09/03 04:10:58;;;;;;;17.67;14.80;;;;;;;23.82;56.26;99761.09;2066848;28;20029;-42
2021/09/03 04:11:59;;;;;;;18.30;15.70;;;;;;;23.81;56.13;99765.72;2068358;28;20034;-42
2021/09/03 04:13:00;;;;;;;21.63;15.67;;;;;;;23.81;56.36;99765.72;2069146;28;20052;-42
2021/09/03 04:14:00;;;;;;;20.97;16.03;;;;;;;23.82;56.28;99761.09;2068751;28;20029;-43
2021/09/03 04:15:01;;;;;;;20.63;15.20;;;;;;;23.81;56.37;99773.97;2066561;28;20571;-42
2021/09/03 04:16:01;;;;;;;20.90;16.07;;;;;;;23.81;56.35;99762.13;2067640;28;20036;-42
2021/09/03 04:17:02;;;;;;;21.53;15.33;;;;;;;23.81;56.21;99767.63;2067347;28;20064;-42
2021/09/03 04:18:02;;;;;;;19.97;16.10;;;;;;;23.82;56.22;99769.34;2068975;28;20490;-42
2021/09/03 04:19:03;;;;;;;21.53;16.50;;;;;;;23.82;56.29;99767.44;2067898;28;20307;-43
2021/09/03 04:20:05;;;;;;;20.80;16.07;;;;;;;23.81;56.27;99760.22;2069743;28;20031;-43
2021/09/03 04:21:06;;;;;;;20.60;15.98;;;;;;;23.81;56.20;99768.47;2067565;28;20030;-42
2021/09/03 04:22:06;;;;;;;21.07;16.73;;;;;;;23.82;56.14;99759.19;2067083;28;20455;-42
2021/09/03 04:23:09;;;;;;;21.10;15.63;;;;;;;23.82;56.18;99764.69;2063413;28;20285;-42
2021/09/03 04:24:10;;;;;;;20.13;16.17;;;;;;;23.81;56.21;99760.22;2067693;28;20033;-42
2021/09/03 04:25:11;;;;;;;22.63;16.70;;;;;;;23.81;56.23;99762.97;2066287;28;20028;-42
2021/09/03 04:26:11;;;;;;;21.25;15.95;;;;;;;23.80;56.29;99761.28;2068711;28;20120;-42
2021/09/03 04:27:12;;;;;;;17.33;14.83;;;;;;;23.80;56.21;99754.91;2067529;28;20475;-41
2021/09/03 04:28:12;;;;;;;20.20;15.80;;;;;;;23.81;56.33;99760.22;2069476;28;20128;-42
2021/09/03 04:29:12;;;;;;;22.10;17.00;;;;;;;23.80;56.40;99755.78;2067179;28;20402;-42
2021/09/03 04:30:13;;;;;;;20.20;17.10;;;;;;;23.80;56.32;99755.78;2067651;28;20594;-42
2021/09/03 04:31:14;;;;;;;17.50;14.30;;;;;;;23.80;56.24;99750.25;2069193;28;20037;-42
2021/09/03 04:32:14;;;;;;;19.70;14.47;;;;;;;23.80;56.23;99750.25;2067926;28;20140;-42
2021/09/03 04:33:15;;;;;;;18.13;13.97;;;;;;;23.80;56.23;99755.78;2069782;28;20065;-46
2021/09/03 04:34:15;;;;;;;20.87;15.93;;;;;;;23.80;56.37;99752.16;2068205;28;20089;-42
2021/09/03 04:35:16;;;;;;;20.53;15.47;;;;;;;23.79;56.30;99754.06;2067873;28;20366;-43
2021/09/03 04:36:16;;;;;;;20.47;14.83;;;;;;;23.81;56.24;99746.44;2068415;28;20140;-44
2021/09/03 04:37:17;;;;;;;16.67;14.37;;;;;;;23.81;56.38;99748.34;2065808;28;20040;-42
2021/09/03 04:38:17;;;;;;;19.73;16.33;;;;;;;23.80;56.32;99744.75;2068076;28;20332;-50